Buoy 13516

sailwx.info

Track history (hours):
 
Tides and Currents Weather Stations Pressure Air Temp Water Temp Dewpoint Dewpoint Depression Visibility Wind Speed Wind Dir Waves Ship Positions

Ao Chao Yang 13516

Last reported at 2014-Sep-30 11:00 UTC. Time now 2014-Sep-30 11:51 UTC.
Position N 28°15' W 038°09'.

Length 20 m.

Type: Fishing. MMSI: 412469022.

Water temperature 27.5 ° C

Date/timePositionNaut miles runAvg speedWind from/ knotsBaromVisibWave heightAir tempDewpointWater temp
2014-Sep-30 11:00N 28°15' W 038°09'1 4.8 27.5
2014-Sep-30 10:53N 28°15' W 038°10'0 0.0 27.4
2014-Sep-30 10:17N 28°15' W 038°10'0 1.6 27.4
2014-Sep-30 10:06N 28°15' W 038°09'113.6 27.3
2014-Sep-30 10:03N 28°14' W 038°09'0 0.0 27.3
2014-Sep-30 08:26N 28°14' W 038°09'0 0.7 27.3
2014-Sep-30 08:15N 28°14' W 038°09'0 0.2
2014-Sep-30 07:00N 28°14' W 038°09'0 0.5 27.4
2014-Sep-30 06:29N 28°14' W 038°09'0 0.0 27.4
2014-Sep-30 06:08N 28°14' W 038°09'0 1.5 27.4
2014-Sep-30 06:03N 28°14' W 038°09'0 0.1 27.4
2014-Sep-30 04:26N 28°14' W 038°09'1 0.2 27.4
2014-Sep-30 01:08N 28°14' W 038°09'0 0.0
2014-Sep-30 00:17N 28°14' W 038°09'0 0.5 27.4
2014-Sep-29 23:29N 28°13' W 038°09'1 6.1 27.4
2014-Sep-29 23:24N 28°13' W 038°09'0 0.0 27.4
2014-Sep-29 23:03N 28°13' W 038°09'0 0.0 27.4
2014-Sep-29 22:38N 28°13' W 038°09'1 9.5 27.4
2014-Sep-29 22:33N 28°14' W 038°08'0 0.0 27.4
2014-Sep-29 21:42N 28°14' W 038°08'0 0.0 27.4
2014-Sep-29 21:29N 28°14' W 038°08'0 0.3 27.5
2014-Sep-29 20:11N 28°14' W 038°08'0 2.9 27.5
2014-Sep-29 20:06N 28°14' W 038°08'0 1.5 27.5
2014-Sep-29 19:51N 28°14' W 038°09'0 2.2 27.5
2014-Sep-29 19:44N 28°14' W 038°09'114.6 27.5
2014-Sep-29 19:41N 28°13' W 038°08'0 0.2 27.5
2014-Sep-29 18:29N 28°13' W 038°08'1 1.8 27.6
2014-Sep-29 18:06N 28°14' W 038°08'0 0.2 27.6
2014-Sep-29 17:41N 28°14' W 038°08'0 0.1 27.6
2014-Sep-29 16:02N 28°14' W 038°08'0 0.0 27.6
2014-Sep-29 14:18N 28°14' W 038°08'0 0.6 27.4
2014-Sep-29 13:53N 28°14' W 038°08'0 0.2 27.4
2014-Sep-29 12:15N 28°14' W 038°08'0 0.5 27.3
2014-Sep-29 12:08N 28°14' W 038°08'117.9 27.3
2014-Sep-29 12:06N 28°14' W 038°09'0 0.0 27.3
2014-Sep-29 11:18N 28°14' W 038°09'0 9.6 27.3
2014-Sep-29 11:15N 28°14' W 038°08'0 0.0 27.3
2014-Sep-29 09:08N 28°14' W 038°08'0 0.9 27.3
2014-Sep-29 08:50N 28°14' W 038°08'0 0.8 27.3
2014-Sep-29 08:30N 28°14' W 038°08'0 0.0 27.3
2014-Sep-29 08:26N 28°14' W 038°08'0 0.5 27.3
2014-Sep-29 07:33N 28°14' W 038°08'0 0.2 27.3
2014-Sep-29 07:15N 28°14' W 038°08'0 0.0 27.3
2014-Sep-29 06:47N 28°14' W 038°08'0 4.4 27.3
2014-Sep-29 06:42N 28°13' W 038°08'0 7.2 27.3
2014-Sep-29 06:39N 28°14' W 038°08'0 0.0 27.3
2014-Sep-29 06:20N 28°14' W 038°08'0 2.8 27.3
2014-Sep-29 06:12N 28°14' W 038°09'0 0.0 27.3
2014-Sep-29 04:36N 28°14' W 038°09'1 0.5 27.3
2014-Sep-29 02:53N 28°13' W 038°08'0 0.0 27.4
2014-Sep-29 01:24N 28°13' W 038°08'0 0.0 27.4
2014-Sep-29 00:38N 28°13' W 038°08'1 0.8 27.4
2014-Sep-28 23:51N 28°13' W 038°09'0 0.0 27.4
2014-Sep-28 23:48N 28°13' W 038°09'0 0.0 27.4
2014-Sep-28 23:44N 28°13' W 038°09'0 0.0 27.4
2014-Sep-28 22:59N 28°13' W 038°09'1 5.8 27.4
2014-Sep-28 22:53N 28°13' W 038°08'0 0.4 27.4
2014-Sep-28 22:06N 28°13' W 038°08'0 4.8 27.4
2014-Sep-28 22:02N 28°13' W 038°08'0 0.3 27.4
2014-Sep-28 20:35N 28°13' W 038°08'0 0.5 27.4
2014-Sep-28 20:14N 28°13' W 038°08'1 4.1 27.5
2014-Sep-28 20:02N 28°12' W 038°09'0 0.0 27.5
2014-Sep-28 18:53N 28°12' W 038°09'1 1.7 27.6
2014-Sep-28 18:23N 28°13' W 038°08'0 0.0 27.6
2014-Sep-28 17:50N 28°13' W 038°08'0 0.0 27.6
2014-Sep-28 16:38N 28°13' W 038°08'0 0.0 27.6
2014-Sep-28 16:08N 28°13' W 038°08'0 0.0 27.5
2014-Sep-28 14:30N 28°13' W 038°08'1 0.5 27.4
2014-Sep-28 12:36N 28°13' W 038°07'0 0.5 27.3
2014-Sep-28 12:29N 28°13' W 038°07'0 1.6 27.3
2014-Sep-28 12:26N 28°13' W 038°07'0 0.0 27.3
2014-Sep-28 11:41N 28°13' W 038°07'0 2.9 27.3
2014-Sep-28 11:35N 28°13' W 038°08'0 0.0 27.3
2014-Sep-28 10:47N 28°13' W 038°08'0 0.1 27.2
2014-Sep-28 09:42N 28°13' W 038°08'0 1.0 27.2
2014-Sep-28 09:18N 28°13' W 038°07'0 3.6 27.2
2014-Sep-28 09:14N 28°13' W 038°07'0 8.2 27.2
2014-Sep-28 09:11N 28°13' W 038°07'0 0.3 27.2
2014-Sep-28 08:38N 28°13' W 038°08'0 0.4 27.2
2014-Sep-28 08:05N 28°13' W 038°07'0 0.7 27.2
2014-Sep-28 07:36N 28°13' W 038°08'0 0.1 27.3
2014-Sep-28 06:53N 28°13' W 038°08'014.4 27.2
2014-Sep-28 06:51N 28°13' W 038°08'2 5.5 27.2
2014-Sep-28 06:30N 28°13' W 038°10'0 0.0 27.2
2014-Sep-28 04:53N 28°13' W 038°10'0 0.0 27.3
2014-Sep-28 04:48N 28°13' W 038°10'1 9.6 27.3
2014-Sep-28 04:42N 28°13' W 038°08'0 0.0 27.3
2014-Sep-28 03:06N 28°13' W 038°08'1 0.7 27.3
2014-Sep-28 00:59N 28°12' W 038°07'1 6.0 27.3
2014-Sep-28 00:53N 28°12' W 038°08'0 0.0 27.3
2014-Sep-28 00:06N 28°12' W 038°08'139.3 27.3
2014-Sep-28 00:05N 28°11' W 038°08'0 0.0 27.3
2014-Sep-27 23:20N 28°11' W 038°08'0 3.8 27.3
2014-Sep-27 23:15N 28°11' W 038°08'136.1 27.3
2014-Sep-27 23:14N 28°12' W 038°08'1 0.8 27.3
2014-Sep-27 22:30N 28°12' W 038°08'0 0.0 27.3
2014-Sep-27 20:59N 28°12' W 038°08'0 0.0 27.3
2014-Sep-27 20:53N 28°12' W 038°08'1 3.6 27.3
2014-Sep-27 20:44N 28°12' W 038°08'0 0.5 27.3
2014-Sep-27 20:12N 28°11' W 038°08'0 0.0 27.3
2014-Sep-27 19:20N 28°11' W 038°08'0 2.9 27.3
2014-Sep-27 19:12N 28°11' W 038°08'0 0.0 27.3
2014-Sep-27 18:33N 28°11' W 038°08'0 1.2 27.3
2014-Sep-27 18:30N 28°11' W 038°08'1 1.2 27.3
2014-Sep-27 18:00N 28°11' W 038°07'0 0.0 27.3
2014-Sep-27 17:38N 28°11' W 038°07'1 1.4 27.3
2014-Sep-27 16:50N 28°12' W 038°06'0 0.0 27.3
2014-Sep-27 16:23N 28°12' W 038°06'0 0.2 27.3
2014-Sep-27 14:41N 28°12' W 038°06'0 0.0 27.3
2014-Sep-27 13:42N 28°12' W 038°06'0 0.0 27.3
2014-Sep-27 12:53N 28°12' W 038°06'0 0.5 27.3
2014-Sep-27 12:02N 28°12' W 038°07'0 2.0 27.3
2014-Sep-27 11:56N 28°12' W 038°07'1 0.8 27.3
2014-Sep-27 11:06N 28°12' W 038°06'0 0.1 27.3
2014-Sep-27 10:11N 28°13' W 038°06'0 0.0 27.3
2014-Sep-27 09:41N 28°13' W 038°06'1 1.5 27.3
2014-Sep-27 08:48N 28°12' W 038°07'0 0.0 27.3
2014-Sep-27 08:44N 28°12' W 038°07'1 5.2 27.3
2014-Sep-27 08:36N 28°12' W 038°07'1 0.5 27.3
2014-Sep-27 07:08N 28°12' W 038°07'0 8.1 27.3
2014-Sep-27 07:06N 28°12' W 038°07'0 3.6 27.3
2014-Sep-27 07:02N 28°11' W 038°07'0 3.2 27.3
2014-Sep-27 06:53N 28°12' W 038°07'0 2.4 27.3
2014-Sep-27 06:41N 28°11' W 038°07'0 1.3 27.3
2014-Sep-27 06:23N 28°11' W 038°07'0 0.3 27.3
2014-Sep-27 05:27N 28°11' W 038°07'0 0.0 27.3
2014-Sep-27 04:59N 28°11' W 038°07'1 6.6 27.3
2014-Sep-27 04:53N 28°11' W 038°07'0 0.1 27.3
2014-Sep-27 03:18N 28°11' W 038°07'0 4.4 27.3
2014-Sep-27 03:12N 28°11' W 038°07'0 0.0 27.3
2014-Sep-27 01:20N 28°11' W 038°07'0 4.4 27.4
2014-Sep-27 01:15N 28°11' W 038°07'1 0.6 27.4
2014-Sep-26 22:59N 28°10' W 038°08'0 0.0 27.4
2014-Sep-26 22:51N 28°10' W 038°08'0 0.0 27.4
2014-Sep-26 22:42N 28°10' W 038°08'0 0.0
2014-Sep-26 21:59N 28°10' W 038°08'218.3 27.4
2014-Sep-26 21:53N 28°08' W 038°06'0 0.0 27.4
2014-Sep-26 21:21N 28°08' W 038°06'1 0.6 27.4
2014-Sep-26 20:21N 28°09' W 038°05'0 0.0 27.4
2014-Sep-26 19:44N 28°09' W 038°05'0 0.0 27.4
2014-Sep-26 19:38N 28°09' W 038°05'0 0.0 27.5
2014-Sep-26 18:45N 28°09' W 038°05'0 0.0 27.5
2014-Sep-26 18:38N 28°09' W 038°05'0 0.0 27.5
2014-Sep-26 18:11N 28°09' W 038°05'0 0.0 27.5
2014-Sep-26 18:00N 28°09' W 038°05'0 0.0 27.5
2014-Sep-26 17:02N 28°09' W 038°05'0 1.0 27.5
2014-Sep-26 16:33N 28°09' W 038°05'0 0.3 27.5
2014-Sep-26 14:53N 28°09' W 038°06'1 0.6 27.4
2014-Sep-26 14:02N 28°10' W 038°05'0 0.0 27.4
2014-Sep-26 13:17N 28°10' W 038°05'0 0.6 27.4
2014-Sep-26 13:12N 28°10' W 038°05'1 1.3 27.4
2014-Sep-26 12:23N 28°09' W 038°06'0 0.0 27.4
2014-Sep-26 12:15N 28°09' W 038°06'0 0.0 27.4
2014-Sep-26 11:27N 28°09' W 038°06'0 0.0 27.4
2014-Sep-26 10:42N 28°09' W 038°06'1 1.3 27.3
2014-Sep-26 10:03N 28°09' W 038°05'0 0.0 27.3
2014-Sep-26 09:06N 28°09' W 038°05'0 3.8 27.3
2014-Sep-26 09:00N 28°09' W 038°05'0 0.0
2014-Sep-26 08:56N 28°09' W 038°05'0 0.0 27.3
2014-Sep-26 08:24N 28°09' W 038°05'0 0.0 27.3
2014-Sep-26 07:23N 28°09' W 038°05'014.3 27.4
2014-Sep-26 07:21N 28°09' W 038°04'0 0.0 27.3
2014-Sep-26 07:17N 28°09' W 038°04'0 0.5 27.3
2014-Sep-26 06:48N 28°09' W 038°05'1 0.7 27.4
2014-Sep-26 05:35N 28°09' W 038°04'0 0.0 27.4
2014-Sep-26 05:06N 28°09' W 038°04'2 1.0 27.4
2014-Sep-26 03:29N 28°09' W 038°06'1 7.0 27.4
2014-Sep-26 03:24N 28°09' W 038°05'1 0.4 27.4
2014-Sep-26 01:36N 28°08' W 038°05'0 0.0 27.4
2014-Sep-26 00:51N 28°08' W 038°05'0 0.1 27.4
2014-Sep-25 23:57N 28°08' W 038°05'0 0.4 27.4
2014-Sep-25 23:08N 28°08' W 038°05'1 0.9 27.4
2014-Sep-25 22:20N 28°08' W 038°05'0 4.0 27.4
2014-Sep-25 22:17N 28°07' W 038°04'0 0.0 27.4
2014-Sep-25 21:53N 28°07' W 038°04'1 0.4 27.4
2014-Sep-25 20:33N 28°08' W 038°04'1 2.2 27.5
2014-Sep-25 20:08N 28°07' W 038°03'0 0.0 27.5
2014-Sep-25 18:53N 28°07' W 038°03'0 0.0 27.6
2014-Sep-25 18:51N 28°07' W 038°03'0 0.7 27.6
2014-Sep-25 18:29N 28°07' W 038°03'1 0.7 27.6
2014-Sep-25 17:15N 28°07' W 038°04'1 1.8 27.6
2014-Sep-25 16:45N 28°07' W 038°03'0 0.1 27.6
2014-Sep-25 15:03N 28°07' W 038°03'0 0.0 27.5
2014-Sep-25 14:20N 28°07' W 038°03'0 0.0 27.5
2014-Sep-25 13:36N 28°07' W 038°03'0 0.2 27.4
2014-Sep-25 12:41N 28°07' W 038°02'0 8.8 27.4
2014-Sep-25 12:38N 28°07' W 038°03'0 0.0 27.4
2014-Sep-25 12:35N 28°07' W 038°03'0 0.0 27.4
2014-Sep-25 11:59N 28°07' W 038°03'0 0.0 27.4
2014-Sep-25 11:51N 28°07' W 038°03'021.4 27.4
2014-Sep-25 11:50N 28°07' W 038°03'0 0.0 27.4
2014-Sep-25 11:03N 28°07' W 038°03'1 6.4 27.4
2014-Sep-25 10:57N 28°07' W 038°03'0 0.0 27.4
2014-Sep-25 09:36N 28°07' W 038°03'0 0.7 27.4
2014-Sep-25 09:12N 28°07' W 038°03'1 1.3 27.4
2014-Sep-25 08:48N 28°07' W 038°03'0 0.3 27.4
2014-Sep-25 07:51N 28°06' W 038°02'0 1.6 27.4
2014-Sep-25 07:32N 28°07' W 038°03'111.2 27.4
2014-Sep-25 07:29N 28°06' W 038°02'0 0.0 27.4
2014-Sep-25 07:14N 28°06' W 038°02'0 0.0 27.4
2014-Sep-25 07:08N 28°06' W 038°02'1 9.0 27.4
2014-Sep-25 06:59N 28°07' W 038°04'0 0.0 27.4
2014-Sep-25 05:51N 28°07' W 038°04'224.0 27.4
2014-Sep-25 05:47N 28°06' W 038°02'0 0.0 27.4
2014-Sep-25 05:21N 28°06' W 038°02'1 5.1 27.4
2014-Sep-25 05:14N 28°06' W 038°02'0 0.2 27.4
2014-Sep-25 03:39N 28°05' W 038°02'0 0.0 27.4
2014-Sep-25 03:35N 28°05' W 038°02'0 0.2 27.4
2014-Sep-25 01:12N 28°06' W 038°01'1 8.7 27.5
2014-Sep-25 01:08N 28°05' W 038°02'0 0.0 27.5
2014-Sep-25 00:23N 28°05' W 038°02'0 0.4 27.5
2014-Sep-24 23:32N 28°05' W 038°01'0 2.5 27.5
2014-Sep-24 23:23N 28°05' W 038°01'0 0.0 27.5
2014-Sep-24 22:41N 28°05' W 038°01'0 0.0 27.5
2014-Sep-24 22:24N 28°05' W 038°01'0 0.2 27.6
2014-Sep-24 20:38N 28°04' W 038°01'0 0.0 27.6
2014-Sep-24 20:32N 28°04' W 038°01'0 0.0 27.6
2014-Sep-24 19:08N 28°04' W 038°01'0 4.2 27.7
2014-Sep-24 19:05N 28°04' W 038°01'0 0.8 27.7
2014-Sep-24 18:53N 28°04' W 038°01'0 0.3 27.7
2014-Sep-24 17:24N 28°04' W 038°01'0 0.0 27.7
2014-Sep-24 16:53N 28°04' W 038°01'0 0.3 27.7
2014-Sep-24 15:15N 28°04' W 038°00'0 0.3 27.6
2014-Sep-24 13:53N 28°04' W 038°00'0 2.1 27.6
2014-Sep-24 13:50N 28°04' W 038°00'0 0.0 27.5
2014-Sep-24 12:15N 28°04' W 038°00'0 2.1 27.5
2014-Sep-24 12:08N 28°04' W 038°00'0 0.1 27.5
2014-Sep-24 11:18N 28°04' W 038°00'0 0.0 27.5
2014-Sep-24 10:06N 28°04' W 038°00'0 0.5 27.4
2014-Sep-24 09:23N 28°04' W 038°00'0 0.1 27.4
2014-Sep-24 07:41N 28°04' W 038°00'0 1.0 27.4
2014-Sep-24 07:36N 28°04' W 038°00'0 0.0 27.4
2014-Sep-24 07:29N 28°04' W 038°00'0 0.0 27.4
2014-Sep-24 06:48N 28°04' W 038°00'1 0.7 27.4
2014-Sep-24 06:03N 28°03' W 037°60'0 0.0 27.4
2014-Sep-24 05:32N 28°03' W 037°60'0 3.2 27.5
2014-Sep-24 05:26N 28°03' W 037°60'0 0.1 27.5
2014-Sep-24 03:53N 28°03' W 037°60'115.7 27.5
2014-Sep-24 03:51N 28°03' W 037°59'0 0.1 27.5
2014-Sep-24 01:30N 28°02' W 037°59'0 0.1 27.6
2014-Sep-24 00:41N 28°02' W 037°59'1 1.4 27.6
2014-Sep-23 23:53N 28°03' W 037°58'0 9.7 27.6
2014-Sep-23 23:51N 28°03' W 037°58'111.0 27.6
2014-Sep-23 23:45N 28°02' W 037°59'0 0.0 27.6
2014-Sep-23 23:03N 28°02' W 037°59'0 0.7 27.6
2014-Sep-23 22:56N 28°02' W 037°60'0 0.0 27.6
2014-Sep-23 22:53N 28°02' W 037°60'1 0.7 27.6
2014-Sep-23 22:08N 28°03' W 037°59'0 0.0 27.7
2014-Sep-23 21:08N 28°03' W 037°59'1 4.0 27.7
2014-Sep-23 20:56N 28°02' W 037°59'116.2 27.8
2014-Sep-23 20:53N 28°03' W 037°59'1 0.7 27.8
2014-Sep-23 19:39N 28°02' W 037°59'0 1.1 27.9
2014-Sep-23 19:30N 28°02' W 037°59'0 1.4 27.9
2014-Sep-23 19:18N 28°02' W 037°59'1 0.3 27.9
2014-Sep-23 17:38N 28°02' W 037°58'0 0.4 28.2
2014-Sep-23 17:08N 28°02' W 037°59'1 0.3 28.4
2014-Sep-23 15:27N 28°01' W 037°59'0 0.2 28.5
2014-Sep-23 12:36N 28°01' W 037°58'0 1.1 27.7
2014-Sep-23 12:33N 28°01' W 037°59'0 4.8 27.7
2014-Sep-23 12:29N 28°02' W 037°59'0 0.0 27.7
2014-Sep-23 11:44N 28°02' W 037°59'0 1.1 27.6
2014-Sep-23 11:38N 28°02' W 037°59'0 8.7
2014-Sep-23 11:36N 28°01' W 037°59'0 0.2 27.5
2014-Sep-23 10:53N 28°01' W 037°59'120.8 27.5
2014-Sep-23 10:51N 28°01' W 037°59'0 0.0 27.5
2014-Sep-23 09:41N 28°01' W 037°59'0 0.6 27.4
2014-Sep-23 09:00N 28°01' W 037°59'0 0.3 27.4
2014-Sep-23 07:53N 28°01' W 037°58'1 5.1 27.4
2014-Sep-23 07:47N 28°01' W 037°59'0 0.0 27.4
2014-Sep-23 07:21N 28°01' W 037°59'0 0.1 27.4
2014-Sep-23 06:14N 28°01' W 037°59'0 2.7 27.4
2014-Sep-23 06:06N 28°01' W 037°59'0 0.7
2014-Sep-23 05:41N 28°01' W 037°58'113.2 27.4
2014-Sep-23 05:38N 28°00' W 037°58'0 0.0 27.4
2014-Sep-23 04:03N 28°00' W 037°58'1 5.4 27.5
2014-Sep-23 03:57N 28°00' W 037°58'0 0.0 27.5
2014-Sep-23 01:02N 28°00' W 037°58'0 3.7 27.5
2014-Sep-23 00:57N 28°00' W 037°58'0 0.0 27.5
2014-Sep-23 00:12N 28°00' W 037°58'0 3.4 27.5
2014-Sep-23 00:06N 28°00' W 037°58'0 0.1 27.5
2014-Sep-22 23:23N 28°00' W 037°58'0 1.9 27.5
2014-Sep-22 23:17N 28°00' W 037°58'0 0.4 27.5
2014-Sep-22 22:32N 28°00' W 037°57'0 0.0 27.5
2014-Sep-22 21:50N 28°00' W 037°57'1 1.1 27.5
2014-Sep-22 21:18N 27°60' W 037°57'0 0.0 27.5
2014-Sep-22 20:08N 27°60' W 037°57'0 4.4 27.6
2014-Sep-22 20:03N 28°00' W 037°57'1 1.4 27.6
2014-Sep-22 19:30N 27°60' W 037°58'0 0.0 27.6
2014-Sep-22 18:02N 27°60' W 037°58'1 3.0 27.6
2014-Sep-22 17:50N 27°59' W 037°57'0 0.6 27.6
2014-Sep-22 17:17N 27°60' W 037°57'0 0.3 27.6
2014-Sep-22 15:36N 27°60' W 037°57'0 0.2 27.6
2014-Sep-22 13:47N 27°59' W 037°57'0 0.0 27.5
2014-Sep-22 12:59N 27°59' W 037°57'1 5.8 27.5
2014-Sep-22 12:53N 27°59' W 037°57'1 7.1 27.5
2014-Sep-22 12:48N 27°59' W 037°57'0 0.0
2014-Sep-22 12:08N 27°59' W 037°57'0 0.0 27.5
2014-Sep-22 12:05N 27°59' W 037°57'1 5.4 27.5
2014-Sep-22 11:59N 27°59' W 037°57'1 1.3 27.5
2014-Sep-22 11:11N 27°58' W 037°57'0 0.0 27.5
2014-Sep-22 10:02N 27°58' W 037°57'1 0.5 27.5
2014-Sep-22 08:23N 27°58' W 037°56'0 0.0 27.5
2014-Sep-22 08:05N 27°58' W 037°56'0 0.0 27.6
2014-Sep-22 08:00N 27°58' W 037°56'0 0.0 27.6
2014-Sep-22 07:53N 27°58' W 037°56'1 0.5 27.6
2014-Sep-22 06:29N 27°58' W 037°56'0 1.1 27.6
2014-Sep-22 06:20N 27°57' W 037°55'0 0.1 27.6
2014-Sep-22 05:53N 27°57' W 037°56'0 5.5 27.6
2014-Sep-22 05:48N 27°57' W 037°55'0 0.0 27.6
2014-Sep-22 04:14N 27°57' W 037°55'111.5 27.6
2014-Sep-22 04:08N 27°58' W 037°54'0 0.0 27.6
2014-Sep-22 01:23N 27°58' W 037°54'1 6.1 27.6
2014-Sep-22 01:18N 27°58' W 037°54'0 0.4 27.6
2014-Sep-22 00:36N 27°58' W 037°54'0 0.0 27.6
2014-Sep-21 23:44N 27°58' W 037°54'0 1.1 27.6
2014-Sep-21 23:41N 27°58' W 037°54'0 0.3 27.6
2014-Sep-21 22:53N 27°58' W 037°54'0 5.2 27.6
2014-Sep-21 22:50N 27°58' W 037°54'0 0.0 27.6
2014-Sep-21 22:20N 27°58' W 037°54'0 1.2 27.6
2014-Sep-21 22:02N 27°57' W 037°54'0 0.0 27.6
2014-Sep-21 21:59N 27°57' W 037°54'1 0.5 27.6
2014-Sep-21 20:32N 27°58' W 037°53'0 0.0 27.7
2014-Sep-21 19:41N 27°58' W 037°53'1 0.7 27.7
2014-Sep-21 18:27N 27°58' W 037°54'1 6.1 27.8
2014-Sep-21 18:21N 27°58' W 037°54'1 1.7 27.8
2014-Sep-21 18:00N 27°58' W 037°54'0 0.6 27.9
2014-Sep-21 17:29N 27°58' W 037°54'1 0.4 27.9
2014-Sep-21 15:50N 27°57' W 037°54'0 0.0 28.2
2014-Sep-21 14:05N 27°57' W 037°54'0 0.0 27.8
2014-Sep-21 13:20N 27°57' W 037°54'0 2.0 27.7
2014-Sep-21 13:14N 27°57' W 037°53'0 0.4 27.7
2014-Sep-21 12:23N 27°57' W 037°54'0 0.0 27.6
2014-Sep-21 12:18N 27°57' W 037°54'0 0.0 27.6
2014-Sep-21 11:39N 27°57' W 037°54'0 1.1 27.6
2014-Sep-21 11:36N 27°57' W 037°54'0 4.8 27.6
2014-Sep-21 11:32N 27°57' W 037°54'0 0.0 27.6
2014-Sep-21 10:45N 27°57' W 037°54'0 1.2 27.6
2014-Sep-21 10:41N 27°57' W 037°54'0 0.0 27.6
2014-Sep-21 09:59N 27°57' W 037°54'0 0.3 27.6
2014-Sep-21 08:53N 27°56' W 037°53'0 0.5 27.6
2014-Sep-21 08:47N 27°56' W 037°53'0 0.2 27.6
2014-Sep-21 08:20N 27°56' W 037°53'0 1.6 27.6
2014-Sep-21 08:17N 27°56' W 037°53'0 0.3 27.6
2014-Sep-21 07:06N 27°56' W 037°53'0 0.6 27.6
2014-Sep-21 06:44N 27°56' W 037°53'0 2.3 27.6
2014-Sep-21 06:39N 27°56' W 037°53'0 2.4 27.6
2014-Sep-21 06:36N 27°56' W 037°53'0 2.7 27.6
2014-Sep-21 06:29N 27°56' W 037°53'0 0.2 27.6
2014-Sep-21 06:08N 27°56' W 037°53'0 2.5 27.6
2014-Sep-21 06:00N 27°56' W 037°53'0 0.0 27.6
2014-Sep-21 04:24N 27°56' W 037°53'0 7.4 27.6
2014-Sep-21 04:20N 27°57' W 037°52'0 0.0 27.6
2014-Sep-21 01:38N 27°57' W 037°52'0 0.0 27.7
2014-Sep-21 00:53N 27°57' W 037°52'1 0.7 27.8
2014-Sep-21 00:05N 27°57' W 037°52'0 0.5 27.9
2014-Sep-20 23:17N 27°57' W 037°52'0 1.6 27.9
2014-Sep-20 23:08N 27°57' W 037°52'1 2.3 27.9
2014-Sep-20 22:50N 27°57' W 037°51'0 0.0 27.9
2014-Sep-20 22:23N 27°57' W 037°51'111.1 27.9
2014-Sep-20 22:20N 27°57' W 037°51'0 0.0 27.9
2014-Sep-20 22:15N 27°57' W 037°51'0 0.0
2014-Sep-20 20:32N 27°57' W 037°51'0 0.2 28.2
2014-Sep-20 19:53N 27°57' W 037°51'1 5.3 28.5
2014-Sep-20 19:47N 27°57' W 037°52'1 4.4 28.5
2014-Sep-20 19:33N 27°56' W 037°51'110.3 28.5
2014-Sep-20 19:27N 27°57' W 037°52'0 6.3 28.5
2014-Sep-20 19:23N 27°57' W 037°52'0 0.4
2014-Sep-20 18:53N 27°56' W 037°52'1 0.8 28.8
2014-Sep-20 18:12N 27°57' W 037°52'0 2.0 28.9
2014-Sep-20 18:08N 27°57' W 037°52'1 1.1 28.9
2014-Sep-20 17:38N 27°57' W 037°51'0 0.4 28.8
2014-Sep-20 16:27N 27°57' W 037°51'0 0.0 28.5
2014-Sep-20 16:00N 27°57' W 037°51'0 0.2 28.4
2014-Sep-20 14:17N 27°57' W 037°52'1 1.3 27.9
2014-Sep-20 13:41N 27°56' W 037°52'1 3.5 27.7
2014-Sep-20 13:32N 27°57' W 037°51'0 0.0 27.7
2014-Sep-20 12:44N 27°57' W 037°51'0 9.6 27.6
2014-Sep-20 12:41N 27°57' W 037°52'0 1.1 27.6
2014-Sep-20 12:38N 27°57' W 037°52'0 0.1 27.6
2014-Sep-20 11:53N 27°57' W 037°52'0 0.2 27.5
2014-Sep-20 11:05N 27°57' W 037°52'110.2 27.5
2014-Sep-20 11:00N 27°56' W 037°51'   27.5
Track history (hours):
 
Tides and Currents Weather Stations Pressure Air Temp Water Temp Dewpoint Dewpoint Depression Visibility Wind Speed Wind Dir Waves Ship Positions

Ao Chao Yang 13516

Last reported at 2014-Sep-30 11:00 UTC. Time now 2014-Sep-30 11:51 UTC.
Position N 28°15' W 038°09'.

Length 20 m.

Type: Fishing. MMSI: 412469022.

Water temperature 27.5 ° C

Date/timePositionNaut miles runAvg speedWind from/ knotsBaromVisibWave heightAir tempDewpointWater temp
2014-Sep-30 11:00N 28°15' W 038°09'1 4.8 27.5
2014-Sep-30 10:53N 28°15' W 038°10'0 0.0 27.4
2014-Sep-30 10:17N 28°15' W 038°10'0 1.6 27.4
2014-Sep-30 10:06N 28°15' W 038°09'113.6 27.3
2014-Sep-30 10:03N 28°14' W 038°09'0 0.0 27.3
2014-Sep-30 08:26N 28°14' W 038°09'0 0.7 27.3
2014-Sep-30 08:15N 28°14' W 038°09'0 0.2
2014-Sep-30 07:00N 28°14' W 038°09'0 0.5 27.4
2014-Sep-30 06:29N 28°14' W 038°09'0 0.0 27.4
2014-Sep-30 06:08N 28°14' W 038°09'0 1.5 27.4
2014-Sep-30 06:03N 28°14' W 038°09'0 0.1 27.4
2014-Sep-30 04:26N 28°14' W 038°09'1 0.2 27.4
2014-Sep-30 01:08N 28°14' W 038°09'0 0.0
2014-Sep-30 00:17N 28°14' W 038°09'0 0.5 27.4
2014-Sep-29 23:29N 28°13' W 038°09'1 6.1 27.4
2014-Sep-29 23:24N 28°13' W 038°09'0 0.0 27.4
2014-Sep-29 23:03N 28°13' W 038°09'0 0.0 27.4
2014-Sep-29 22:38N 28°13' W 038°09'1 9.5 27.4
2014-Sep-29 22:33N 28°14' W 038°08'0 0.0 27.4
2014-Sep-29 21:42N 28°14' W 038°08'0 0.0 27.4
2014-Sep-29 21:29N 28°14' W 038°08'0 0.3 27.5
2014-Sep-29 20:11N 28°14' W 038°08'0 2.9 27.5
2014-Sep-29 20:06N 28°14' W 038°08'0 1.5 27.5
2014-Sep-29 19:51N 28°14' W 038°09'0 2.2 27.5
2014-Sep-29 19:44N 28°14' W 038°09'114.6 27.5
2014-Sep-29 19:41N 28°13' W 038°08'0 0.2 27.5
2014-Sep-29 18:29N 28°13' W 038°08'1 1.8 27.6
2014-Sep-29 18:06N 28°14' W 038°08'0 0.2 27.6
2014-Sep-29 17:41N 28°14' W 038°08'0 0.1 27.6
2014-Sep-29 16:02N 28°14' W 038°08'0 0.0 27.6
2014-Sep-29 14:18N 28°14' W 038°08'0 0.6 27.4
2014-Sep-29 13:53N 28°14' W 038°08'0 0.2 27.4
2014-Sep-29 12:15N 28°14' W 038°08'0 0.5 27.3
2014-Sep-29 12:08N 28°14' W 038°08'117.9 27.3
2014-Sep-29 12:06N 28°14' W 038°09'0 0.0 27.3
2014-Sep-29 11:18N 28°14' W 038°09'0 9.6 27.3
2014-Sep-29 11:15N 28°14' W 038°08'0 0.0 27.3
2014-Sep-29 09:08N 28°14' W 038°08'0 0.9 27.3
2014-Sep-29 08:50N 28°14' W 038°08'0 0.8 27.3
2014-Sep-29 08:30N 28°14' W 038°08'0 0.0 27.3
2014-Sep-29 08:26N 28°14' W 038°08'0 0.5 27.3
2014-Sep-29 07:33N 28°14' W 038°08'0 0.2 27.3
2014-Sep-29 07:15N 28°14' W 038°08'0 0.0 27.3
2014-Sep-29 06:47N 28°14' W 038°08'0 4.4 27.3
2014-Sep-29 06:42N 28°13' W 038°08'0 7.2 27.3
2014-Sep-29 06:39N 28°14' W 038°08'0 0.0 27.3
2014-Sep-29 06:20N 28°14' W 038°08'0 2.8 27.3
2014-Sep-29 06:12N 28°14' W 038°09'0 0.0 27.3
2014-Sep-29 04:36N 28°14' W 038°09'1 0.5 27.3
2014-Sep-29 02:53N 28°13' W 038°08'0 0.0 27.4
2014-Sep-29 01:24N 28°13' W 038°08'0 0.0 27.4
2014-Sep-29 00:38N 28°13' W 038°08'1 0.8 27.4
2014-Sep-28 23:51N 28°13' W 038°09'0 0.0 27.4
2014-Sep-28 23:48N 28°13' W 038°09'0 0.0 27.4
2014-Sep-28 23:44N 28°13' W 038°09'0 0.0 27.4
2014-Sep-28 22:59N 28°13' W 038°09'1 5.8 27.4
2014-Sep-28 22:53N 28°13' W 038°08'0 0.4 27.4
2014-Sep-28 22:06N 28°13' W 038°08'0 4.8 27.4
2014-Sep-28 22:02N 28°13' W 038°08'0 0.3 27.4
2014-Sep-28 20:35N 28°13' W 038°08'0 0.5 27.4
2014-Sep-28 20:14N 28°13' W 038°08'1 4.1 27.5
2014-Sep-28 20:02N 28°12' W 038°09'0 0.0 27.5
2014-Sep-28 18:53N 28°12' W 038°09'1 1.7 27.6
2014-Sep-28 18:23N 28°13' W 038°08'0 0.0 27.6
2014-Sep-28 17:50N 28°13' W 038°08'0 0.0 27.6
2014-Sep-28 16:38N 28°13' W 038°08'0 0.0 27.6
2014-Sep-28 16:08N 28°13' W 038°08'0 0.0 27.5
2014-Sep-28 14:30N 28°13' W 038°08'1 0.5 27.4
2014-Sep-28 12:36N 28°13' W 038°07'0 0.5 27.3
2014-Sep-28 12:29N 28°13' W 038°07'0 1.6 27.3
2014-Sep-28 12:26N 28°13' W 038°07'0 0.0 27.3
2014-Sep-28 11:41N 28°13' W 038°07'0 2.9 27.3
2014-Sep-28 11:35N 28°13' W 038°08'0 0.0 27.3
2014-Sep-28 10:47N 28°13' W 038°08'0 0.1 27.2
2014-Sep-28 09:42N 28°13' W 038°08'0 1.0 27.2
2014-Sep-28 09:18N 28°13' W 038°07'0 3.6 27.2
2014-Sep-28 09:14N 28°13' W 038°07'0 8.2 27.2
2014-Sep-28 09:11N 28°13' W 038°07'0 0.3 27.2
2014-Sep-28 08:38N 28°13' W 038°08'0 0.4 27.2
2014-Sep-28 08:05N 28°13' W 038°07'0 0.7 27.2
2014-Sep-28 07:36N 28°13' W 038°08'0 0.1 27.3
2014-Sep-28 06:53N 28°13' W 038°08'014.4 27.2
2014-Sep-28 06:51N 28°13' W 038°08'2 5.5 27.2
2014-Sep-28 06:30N 28°13' W 038°10'0 0.0 27.2
2014-Sep-28 04:53N 28°13' W 038°10'0 0.0 27.3
2014-Sep-28 04:48N 28°13' W 038°10'1 9.6 27.3
2014-Sep-28 04:42N 28°13' W 038°08'0 0.0 27.3
2014-Sep-28 03:06N 28°13' W 038°08'1 0.7 27.3
2014-Sep-28 00:59N 28°12' W 038°07'1 6.0 27.3
2014-Sep-28 00:53N 28°12' W 038°08'0 0.0 27.3
2014-Sep-28 00:06N 28°12' W 038°08'139.3 27.3
2014-Sep-28 00:05N 28°11' W 038°08'0 0.0 27.3
2014-Sep-27 23:20N 28°11' W 038°08'0 3.8 27.3
2014-Sep-27 23:15N 28°11' W 038°08'136.1 27.3
2014-Sep-27 23:14N 28°12' W 038°08'1 0.8 27.3
2014-Sep-27 22:30N 28°12' W 038°08'0 0.0 27.3
2014-Sep-27 20:59N 28°12' W 038°08'0 0.0 27.3
2014-Sep-27 20:53N 28°12' W 038°08'1 3.6 27.3
2014-Sep-27 20:44N 28°12' W 038°08'0 0.5 27.3
2014-Sep-27 20:12N 28°11' W 038°08'0 0.0 27.3
2014-Sep-27 19:20N 28°11' W 038°08'0 2.9 27.3
2014-Sep-27 19:12N 28°11' W 038°08'0 0.0 27.3
2014-Sep-27 18:33N 28°11' W 038°08'0 1.2 27.3
2014-Sep-27 18:30N 28°11' W 038°08'1 1.2 27.3
2014-Sep-27 18:00N 28°11' W 038°07'0 0.0 27.3
2014-Sep-27 17:38N 28°11' W 038°07'1 1.4 27.3
2014-Sep-27 16:50N 28°12' W 038°06'0 0.0 27.3
2014-Sep-27 16:23N 28°12' W 038°06'0 0.2 27.3
2014-Sep-27 14:41N 28°12' W 038°06'0 0.0 27.3
2014-Sep-27 13:42N 28°12' W 038°06'0 0.0 27.3
2014-Sep-27 12:53N 28°12' W 038°06'0 0.5 27.3
2014-Sep-27 12:02N 28°12' W 038°07'0 2.0 27.3
2014-Sep-27 11:56N 28°12' W 038°07'1 0.8 27.3
2014-Sep-27 11:06N 28°12' W 038°06'0 0.1 27.3
2014-Sep-27 10:11N 28°13' W 038°06'0 0.0 27.3
2014-Sep-27 09:41N 28°13' W 038°06'1 1.5 27.3
2014-Sep-27 08:48N 28°12' W 038°07'0 0.0 27.3
2014-Sep-27 08:44N 28°12' W 038°07'1 5.2 27.3
2014-Sep-27 08:36N 28°12' W 038°07'1 0.5 27.3
2014-Sep-27 07:08N 28°12' W 038°07'0 8.1 27.3
2014-Sep-27 07:06N 28°12' W 038°07'0 3.6 27.3
2014-Sep-27 07:02N 28°11' W 038°07'0 3.2 27.3
2014-Sep-27 06:53N 28°12' W 038°07'0 2.4 27.3
2014-Sep-27 06:41N 28°11' W 038°07'0 1.3 27.3
2014-Sep-27 06:23N 28°11' W 038°07'0 0.3 27.3
2014-Sep-27 05:27N 28°11' W 038°07'0 0.0 27.3
2014-Sep-27 04:59N 28°11' W 038°07'1 6.6 27.3
2014-Sep-27 04:53N 28°11' W 038°07'0 0.1 27.3
2014-Sep-27 03:18N 28°11' W 038°07'0 4.4 27.3
2014-Sep-27 03:12N 28°11' W 038°07'0 0.0 27.3
2014-Sep-27 01:20N 28°11' W 038°07'0 4.4 27.4
2014-Sep-27 01:15N 28°11' W 038°07'1 0.6 27.4
2014-Sep-26 22:59N 28°10' W 038°08'0 0.0 27.4
2014-Sep-26 22:51N 28°10' W 038°08'0 0.0 27.4
2014-Sep-26 22:42N 28°10' W 038°08'0 0.0
2014-Sep-26 21:59N 28°10' W 038°08'218.3 27.4
2014-Sep-26 21:53N 28°08' W 038°06'0 0.0 27.4
2014-Sep-26 21:21N 28°08' W 038°06'1 0.6 27.4
2014-Sep-26 20:21N 28°09' W 038°05'0 0.0 27.4
2014-Sep-26 19:44N 28°09' W 038°05'0 0.0 27.4
2014-Sep-26 19:38N 28°09' W 038°05'0 0.0 27.5
2014-Sep-26 18:45N 28°09' W 038°05'0 0.0 27.5
2014-Sep-26 18:38N 28°09' W 038°05'0 0.0 27.5
2014-Sep-26 18:11N 28°09' W 038°05'0 0.0 27.5
2014-Sep-26 18:00N 28°09' W 038°05'0 0.0 27.5
2014-Sep-26 17:02N 28°09' W 038°05'0 1.0 27.5
2014-Sep-26 16:33N 28°09' W 038°05'0 0.3 27.5
2014-Sep-26 14:53N 28°09' W 038°06'1 0.6 27.4
2014-Sep-26 14:02N 28°10' W 038°05'0 0.0 27.4
2014-Sep-26 13:17N 28°10' W 038°05'0 0.6 27.4
2014-Sep-26 13:12N 28°10' W 038°05'1 1.3 27.4
2014-Sep-26 12:23N 28°09' W 038°06'0 0.0 27.4
2014-Sep-26 12:15N 28°09' W 038°06'0 0.0 27.4
2014-Sep-26 11:27N 28°09' W 038°06'0 0.0 27.4
2014-Sep-26 10:42N 28°09' W 038°06'1 1.3 27.3
2014-Sep-26 10:03N 28°09' W 038°05'0 0.0 27.3
2014-Sep-26 09:06N 28°09' W 038°05'0 3.8 27.3
2014-Sep-26 09:00N 28°09' W 038°05'0 0.0
2014-Sep-26 08:56N 28°09' W 038°05'0 0.0 27.3
2014-Sep-26 08:24N 28°09' W 038°05'0 0.0 27.3
2014-Sep-26 07:23N 28°09' W 038°05'014.3 27.4
2014-Sep-26 07:21N 28°09' W 038°04'0 0.0 27.3
2014-Sep-26 07:17N 28°09' W 038°04'0 0.5 27.3
2014-Sep-26 06:48N 28°09' W 038°05'1 0.7 27.4
2014-Sep-26 05:35N 28°09' W 038°04'0 0.0 27.4
2014-Sep-26 05:06N 28°09' W 038°04'2 1.0 27.4
2014-Sep-26 03:29N 28°09' W 038°06'1 7.0 27.4
2014-Sep-26 03:24N 28°09' W 038°05'1 0.4 27.4
2014-Sep-26 01:36N 28°08' W 038°05'0 0.0 27.4
2014-Sep-26 00:51N 28°08' W 038°05'0 0.1 27.4
2014-Sep-25 23:57N 28°08' W 038°05'0 0.4 27.4
2014-Sep-25 23:08N 28°08' W 038°05'1 0.9 27.4
2014-Sep-25 22:20N 28°08' W 038°05'0 4.0 27.4
2014-Sep-25 22:17N 28°07' W 038°04'0 0.0 27.4
2014-Sep-25 21:53N 28°07' W 038°04'1 0.4 27.4
2014-Sep-25 20:33N 28°08' W 038°04'1 2.2 27.5
2014-Sep-25 20:08N 28°07' W 038°03'0 0.0 27.5
2014-Sep-25 18:53N 28°07' W 038°03'0 0.0 27.6
2014-Sep-25 18:51N 28°07' W 038°03'0 0.7 27.6
2014-Sep-25 18:29N 28°07' W 038°03'1 0.7 27.6
2014-Sep-25 17:15N 28°07' W 038°04'1 1.8 27.6
2014-Sep-25 16:45N 28°07' W 038°03'0 0.1 27.6
2014-Sep-25 15:03N 28°07' W 038°03'0 0.0 27.5
2014-Sep-25 14:20N 28°07' W 038°03'0 0.0 27.5
2014-Sep-25 13:36N 28°07' W 038°03'0 0.2 27.4
2014-Sep-25 12:41N 28°07' W 038°02'0 8.8 27.4
2014-Sep-25 12:38N 28°07' W 038°03'0 0.0 27.4
2014-Sep-25 12:35N 28°07' W 038°03'0 0.0 27.4
2014-Sep-25 11:59N 28°07' W 038°03'0 0.0 27.4
2014-Sep-25 11:51N 28°07' W 038°03'021.4 27.4
2014-Sep-25 11:50N 28°07' W 038°03'0 0.0 27.4
2014-Sep-25 11:03N 28°07' W 038°03'1 6.4 27.4
2014-Sep-25 10:57N 28°07' W 038°03'0 0.0 27.4
2014-Sep-25 09:36N 28°07' W 038°03'0 0.7 27.4
2014-Sep-25 09:12N 28°07' W 038°03'1 1.3 27.4
2014-Sep-25 08:48N 28°07' W 038°03'0 0.3 27.4
2014-Sep-25 07:51N 28°06' W 038°02'0 1.6 27.4
2014-Sep-25 07:32N 28°07' W 038°03'111.2 27.4
2014-Sep-25 07:29N 28°06' W 038°02'0 0.0 27.4
2014-Sep-25 07:14N 28°06' W 038°02'0 0.0 27.4
2014-Sep-25 07:08N 28°06' W 038°02'1 9.0 27.4
2014-Sep-25 06:59N 28°07' W 038°04'0 0.0 27.4
2014-Sep-25 05:51N 28°07' W 038°04'224.0 27.4
2014-Sep-25 05:47N 28°06' W 038°02'0 0.0 27.4
2014-Sep-25 05:21N 28°06' W 038°02'1 5.1 27.4
2014-Sep-25 05:14N 28°06' W 038°02'0 0.2 27.4
2014-Sep-25 03:39N 28°05' W 038°02'0 0.0 27.4
2014-Sep-25 03:35N 28°05' W 038°02'0 0.2 27.4
2014-Sep-25 01:12N 28°06' W 038°01'1 8.7 27.5
2014-Sep-25 01:08N 28°05' W 038°02'0 0.0 27.5
2014-Sep-25 00:23N 28°05' W 038°02'0 0.4 27.5
2014-Sep-24 23:32N 28°05' W 038°01'0 2.5 27.5
2014-Sep-24 23:23N 28°05' W 038°01'0 0.0 27.5
2014-Sep-24 22:41N 28°05' W 038°01'0 0.0 27.5
2014-Sep-24 22:24N 28°05' W 038°01'0 0.2 27.6
2014-Sep-24 20:38N 28°04' W 038°01'0 0.0 27.6
2014-Sep-24 20:32N 28°04' W 038°01'0 0.0 27.6
2014-Sep-24 19:08N 28°04' W 038°01'0 4.2 27.7
2014-Sep-24 19:05N 28°04' W 038°01'0 0.8 27.7
2014-Sep-24 18:53N 28°04' W 038°01'0 0.3 27.7
2014-Sep-24 17:24N 28°04' W 038°01'0 0.0 27.7
2014-Sep-24 16:53N 28°04' W 038°01'0 0.3 27.7
2014-Sep-24 15:15N 28°04' W 038°00'0 0.3 27.6
2014-Sep-24 13:53N 28°04' W 038°00'0 2.1 27.6
2014-Sep-24 13:50N 28°04' W 038°00'0 0.0 27.5
2014-Sep-24 12:15N 28°04' W 038°00'0 2.1 27.5
2014-Sep-24 12:08N 28°04' W 038°00'0 0.1 27.5
2014-Sep-24 11:18N 28°04' W 038°00'0 0.0 27.5
2014-Sep-24 10:06N 28°04' W 038°00'0 0.5 27.4
2014-Sep-24 09:23N 28°04' W 038°00'0 0.1 27.4
2014-Sep-24 07:41N 28°04' W 038°00'0 1.0 27.4
2014-Sep-24 07:36N 28°04' W 038°00'0 0.0 27.4
2014-Sep-24 07:29N 28°04' W 038°00'0 0.0 27.4
2014-Sep-24 06:48N 28°04' W 038°00'1 0.7 27.4
2014-Sep-24 06:03N 28°03' W 037°60'0 0.0 27.4
2014-Sep-24 05:32N 28°03' W 037°60'0 3.2 27.5
2014-Sep-24 05:26N 28°03' W 037°60'0 0.1 27.5
2014-Sep-24 03:53N 28°03' W 037°60'115.7 27.5
2014-Sep-24 03:51N 28°03' W 037°59'0 0.1 27.5
2014-Sep-24 01:30N 28°02' W 037°59'0 0.1 27.6
2014-Sep-24 00:41N 28°02' W 037°59'1 1.4 27.6
2014-Sep-23 23:53N 28°03' W 037°58'0 9.7 27.6
2014-Sep-23 23:51N 28°03' W 037°58'111.0 27.6
2014-Sep-23 23:45N 28°02' W 037°59'0 0.0 27.6
2014-Sep-23 23:03N 28°02' W 037°59'0 0.7 27.6
2014-Sep-23 22:56N 28°02' W 037°60'0 0.0 27.6
2014-Sep-23 22:53N 28°02' W 037°60'1 0.7 27.6
2014-Sep-23 22:08N 28°03' W 037°59'0 0.0 27.7
2014-Sep-23 21:08N 28°03' W 037°59'1 4.0 27.7
2014-Sep-23 20:56N 28°02' W 037°59'116.2 27.8
2014-Sep-23 20:53N 28°03' W 037°59'1 0.7 27.8
2014-Sep-23 19:39N 28°02' W 037°59'0 1.1 27.9
2014-Sep-23 19:30N 28°02' W 037°59'0 1.4 27.9
2014-Sep-23 19:18N 28°02' W 037°59'1 0.3 27.9
2014-Sep-23 17:38N 28°02' W 037°58'0 0.4 28.2
2014-Sep-23 17:08N 28°02' W 037°59'1 0.3 28.4
2014-Sep-23 15:27N 28°01' W 037°59'0 0.2 28.5
2014-Sep-23 12:36N 28°01' W 037°58'0 1.1 27.7
2014-Sep-23 12:33N 28°01' W 037°59'0 4.8 27.7
2014-Sep-23 12:29N 28°02' W 037°59'0 0.0 27.7
2014-Sep-23 11:44N 28°02' W 037°59'0 1.1 27.6
2014-Sep-23 11:38N 28°02' W 037°59'0 8.7
2014-Sep-23 11:36N 28°01' W 037°59'0 0.2 27.5
2014-Sep-23 10:53N 28°01' W 037°59'120.8 27.5
2014-Sep-23 10:51N 28°01' W 037°59'0 0.0 27.5
2014-Sep-23 09:41N 28°01' W 037°59'0 0.6 27.4
2014-Sep-23 09:00N 28°01' W 037°59'0 0.3 27.4
2014-Sep-23 07:53N 28°01' W 037°58'1 5.1 27.4
2014-Sep-23 07:47N 28°01' W 037°59'0 0.0 27.4
2014-Sep-23 07:21N 28°01' W 037°59'0 0.1 27.4
2014-Sep-23 06:14N 28°01' W 037°59'0 2.7 27.4
2014-Sep-23 06:06N 28°01' W 037°59'0 0.7
2014-Sep-23 05:41N 28°01' W 037°58'113.2 27.4
2014-Sep-23 05:38N 28°00' W 037°58'0 0.0 27.4
2014-Sep-23 04:03N 28°00' W 037°58'1 5.4 27.5
2014-Sep-23 03:57N 28°00' W 037°58'0 0.0 27.5
2014-Sep-23 01:02N 28°00' W 037°58'0 3.7 27.5
2014-Sep-23 00:57N 28°00' W 037°58'0 0.0 27.5
2014-Sep-23 00:12N 28°00' W 037°58'0 3.4 27.5
2014-Sep-23 00:06N 28°00' W 037°58'0 0.1 27.5
2014-Sep-22 23:23N 28°00' W 037°58'0 1.9 27.5
2014-Sep-22 23:17N 28°00' W 037°58'0 0.4 27.5
2014-Sep-22 22:32N 28°00' W 037°57'0 0.0 27.5
2014-Sep-22 21:50N 28°00' W 037°57'1 1.1 27.5
2014-Sep-22 21:18N 27°60' W 037°57'0 0.0 27.5
2014-Sep-22 20:08N 27°60' W 037°57'0 4.4 27.6
2014-Sep-22 20:03N 28°00' W 037°57'1 1.4 27.6
2014-Sep-22 19:30N 27°60' W 037°58'0 0.0 27.6
2014-Sep-22 18:02N 27°60' W 037°58'1 3.0 27.6
2014-Sep-22 17:50N 27°59' W 037°57'0 0.6 27.6
2014-Sep-22 17:17N 27°60' W 037°57'0 0.3 27.6
2014-Sep-22 15:36N 27°60' W 037°57'0 0.2 27.6
2014-Sep-22 13:47N 27°59' W 037°57'0 0.0 27.5
2014-Sep-22 12:59N 27°59' W 037°57'1 5.8 27.5
2014-Sep-22 12:53N 27°59' W 037°57'1 7.1 27.5
2014-Sep-22 12:48N 27°59' W 037°57'0 0.0
2014-Sep-22 12:08N 27°59' W 037°57'0 0.0 27.5
2014-Sep-22 12:05N 27°59' W 037°57'1 5.4 27.5
2014-Sep-22 11:59N 27°59' W 037°57'1 1.3 27.5
2014-Sep-22 11:11N 27°58' W 037°57'0 0.0 27.5
2014-Sep-22 10:02N 27°58' W 037°57'1 0.5 27.5
2014-Sep-22 08:23N 27°58' W 037°56'0 0.0 27.5
2014-Sep-22 08:05N 27°58' W 037°56'0 0.0 27.6
2014-Sep-22 08:00N 27°58' W 037°56'0 0.0 27.6
2014-Sep-22 07:53N 27°58' W 037°56'1 0.5 27.6
2014-Sep-22 06:29N 27°58' W 037°56'0 1.1 27.6
2014-Sep-22 06:20N 27°57' W 037°55'0 0.1 27.6
2014-Sep-22 05:53N 27°57' W 037°56'0 5.5 27.6
2014-Sep-22 05:48N 27°57' W 037°55'0 0.0 27.6
2014-Sep-22 04:14N 27°57' W 037°55'111.5 27.6
2014-Sep-22 04:08N 27°58' W 037°54'0 0.0 27.6
2014-Sep-22 01:23N 27°58' W 037°54'1 6.1 27.6
2014-Sep-22 01:18N 27°58' W 037°54'0 0.4 27.6
2014-Sep-22 00:36N 27°58' W 037°54'0 0.0 27.6
2014-Sep-21 23:44N 27°58' W 037°54'0 1.1 27.6
2014-Sep-21 23:41N 27°58' W 037°54'0 0.3 27.6
2014-Sep-21 22:53N 27°58' W 037°54'0 5.2 27.6
2014-Sep-21 22:50N 27°58' W 037°54'0 0.0 27.6
2014-Sep-21 22:20N 27°58' W 037°54'0 1.2 27.6
2014-Sep-21 22:02N 27°57' W 037°54'0 0.0 27.6
2014-Sep-21 21:59N 27°57' W 037°54'1 0.5 27.6
2014-Sep-21 20:32N 27°58' W 037°53'0 0.0 27.7
2014-Sep-21 19:41N 27°58' W 037°53'1 0.7 27.7
2014-Sep-21 18:27N 27°58' W 037°54'1 6.1 27.8
2014-Sep-21 18:21N 27°58' W 037°54'1 1.7 27.8
2014-Sep-21 18:00N 27°58' W 037°54'0 0.6 27.9
2014-Sep-21 17:29N 27°58' W 037°54'1 0.4 27.9
2014-Sep-21 15:50N 27°57' W 037°54'0 0.0 28.2
2014-Sep-21 14:05N 27°57' W 037°54'0 0.0 27.8
2014-Sep-21 13:20N 27°57' W 037°54'0 2.0 27.7
2014-Sep-21 13:14N 27°57' W 037°53'0 0.4 27.7
2014-Sep-21 12:23N 27°57' W 037°54'0 0.0 27.6
2014-Sep-21 12:18N 27°57' W 037°54'0 0.0 27.6
2014-Sep-21 11:39N 27°57' W 037°54'0 1.1 27.6
2014-Sep-21 11:36N 27°57' W 037°54'0 4.8 27.6
2014-Sep-21 11:32N 27°57' W 037°54'0 0.0 27.6
2014-Sep-21 10:45N 27°57' W 037°54'0 1.2 27.6
2014-Sep-21 10:41N 27°57' W 037°54'0 0.0 27.6
2014-Sep-21 09:59N 27°57' W 037°54'0 0.3 27.6
2014-Sep-21 08:53N 27°56' W 037°53'0 0.5 27.6
2014-Sep-21 08:47N 27°56' W 037°53'0 0.2 27.6
2014-Sep-21 08:20N 27°56' W 037°53'0 1.6 27.6
2014-Sep-21 08:17N 27°56' W 037°53'0 0.3 27.6
2014-Sep-21 07:06N 27°56' W 037°53'0 0.6 27.6
2014-Sep-21 06:44N 27°56' W 037°53'0 2.3 27.6
2014-Sep-21 06:39N 27°56' W 037°53'0 2.4 27.6
2014-Sep-21 06:36N 27°56' W 037°53'0 2.7 27.6
2014-Sep-21 06:29N 27°56' W 037°53'0 0.2 27.6
2014-Sep-21 06:08N 27°56' W 037°53'0 2.5 27.6
2014-Sep-21 06:00N 27°56' W 037°53'0 0.0 27.6
2014-Sep-21 04:24N 27°56' W 037°53'0 7.4 27.6
2014-Sep-21 04:20N 27°57' W 037°52'0 0.0 27.6
2014-Sep-21 01:38N 27°57' W 037°52'0 0.0 27.7
2014-Sep-21 00:53N 27°57' W 037°52'1 0.7 27.8
2014-Sep-21 00:05N 27°57' W 037°52'0 0.5 27.9
2014-Sep-20 23:17N 27°57' W 037°52'0 1.6 27.9
2014-Sep-20 23:08N 27°57' W 037°52'1 2.3 27.9
2014-Sep-20 22:50N 27°57' W 037°51'0 0.0 27.9
2014-Sep-20 22:23N 27°57' W 037°51'111.1 27.9
2014-Sep-20 22:20N 27°57' W 037°51'0 0.0 27.9
2014-Sep-20 22:15N 27°57' W 037°51'0 0.0
2014-Sep-20 20:32N 27°57' W 037°51'0 0.2 28.2
2014-Sep-20 19:53N 27°57' W 037°51'1 5.3 28.5
2014-Sep-20 19:47N 27°57' W 037°52'1 4.4 28.5
2014-Sep-20 19:33N 27°56' W 037°51'110.3 28.5
2014-Sep-20 19:27N 27°57' W 037°52'0 6.3 28.5
2014-Sep-20 19:23N 27°57' W 037°52'0 0.4
2014-Sep-20 18:53N 27°56' W 037°52'1 0.8 28.8
2014-Sep-20 18:12N 27°57' W 037°52'0 2.0 28.9
2014-Sep-20 18:08N 27°57' W 037°52'1 1.1 28.9
2014-Sep-20 17:38N 27°57' W 037°51'0 0.4 28.8
2014-Sep-20 16:27N 27°57' W 037°51'0 0.0 28.5
2014-Sep-20 16:00N 27°57' W 037°51'0 0.2 28.4
2014-Sep-20 14:17N 27°57' W 037°52'1 1.3 27.9
2014-Sep-20 13:41N 27°56' W 037°52'1 3.5 27.7
2014-Sep-20 13:32N 27°57' W 037°51'0 0.0 27.7
2014-Sep-20 12:44N 27°57' W 037°51'0 9.6 27.6
2014-Sep-20 12:41N 27°57' W 037°52'0 1.1 27.6
2014-Sep-20 12:38N 27°57' W 037°52'0 0.1 27.6
2014-Sep-20 11:53N 27°57' W 037°52'0 0.2 27.5
2014-Sep-20 11:05N 27°57' W 037°52'110.2 27.5
2014-Sep-20 11:00N 27°56' W 037°51'   27.5

Dump ship's entire track history